Time;durP1;ratioP1;P1;durP2;ratioP2;P2;SDS_P1;SDS_P2;PMS_P1;PMS_P2;Temp;Humidity;BMP_temperature;BMP_pressure;BME280_temperature;BME280_humidity;BME280_pressure;Samples;Min_cycle;Max_cycle;Signal;HPM_P1;HPM_P2
2023/07/01 00:01:06;;;;;;;6.10;3.37;;;;;;;23.61;62.18;98532.88;6217483;23;20479;-84
2023/07/01 00:03:32;;;;;;;6.10;3.80;;;;;;;23.54;62.23;98531.91;6191238;23;20271;-84
2023/07/01 00:05:58;;;;;;;6.53;3.70;;;;;;;23.52;62.70;98531.25;6191294;23;20236;-84
2023/07/01 00:08:24;;;;;;;5.47;3.80;;;;;;;23.41;63.45;98539.66;6217536;23;20146;-84
2023/07/01 00:10:50;;;;;;;5.77;3.23;;;;;;;23.36;63.38;98537.50;6217468;23;20245;-84
2023/07/01 00:13:15;;;;;;;5.53;3.67;;;;;;;23.33;63.59;98532.50;6191128;23;20150;-84
2023/07/01 00:15:40;;;;;;;6.07;3.60;;;;;;;23.36;64.03;98536.66;6217741;23;20146;-84
2023/07/01 00:18:06;;;;;;;5.80;3.53;;;;;;;23.33;63.98;98535.16;6217346;23;20510;-84
2023/07/01 00:20:32;;;;;;;5.23;3.40;;;;;;;23.27;64.34;98533.19;6191028;23;20303;-84
2023/07/01 00:22:57;;;;;;;5.00;3.30;;;;;;;23.28;64.09;98529.53;6217327;23;20149;-84
2023/07/01 00:25:23;;;;;;;5.37;3.20;;;;;;;23.22;64.16;98535.56;6190882;23;20228;-84
2023/07/01 00:27:49;;;;;;;7.07;3.30;;;;;;;23.16;64.80;98530.94;6190985;23;20157;-84
2023/07/01 00:30:14;;;;;;;5.47;3.23;;;;;;;23.16;64.62;98533.59;6217000;23;20446;-84
2023/07/01 00:32:40;;;;;;;8.90;3.50;;;;;;;23.17;64.47;98538.75;6217798;23;20439;-84
2023/07/01 00:35:05;;;;;;;6.83;3.90;;;;;;;23.05;64.86;98528.63;6217152;23;20141;-84
2023/07/01 00:37:31;;;;;;;6.37;3.60;;;;;;;23.02;64.65;98532.50;6217121;23;20161;-84
2023/07/01 00:39:56;;;;;;;7.77;3.73;;;;;;;22.85;65.69;98522.84;6190844;23;20157;-84
2023/07/01 00:42:22;;;;;;;6.80;3.23;;;;;;;22.83;65.74;98526.72;6217111;23;20146;-84
2023/07/01 00:44:47;;;;;;;5.63;3.20;;;;;;;22.86;65.94;98529.88;6190783;23;20277;-84
2023/07/01 00:47:13;;;;;;;10.80;3.63;;;;;;;22.83;66.32;98526.72;6217564;23;20150;-84
2023/07/01 00:49:40;;;;;;;6.73;3.30;;;;;;;22.77;66.69;98525.59;6190911;23;20508;-84
2023/07/01 00:52:06;;;;;;;6.43;3.07;;;;;;;22.71;66.86;98525.41;6217050;23;20186;-84
2023/07/01 00:54:37;;;;;;;4.30;3.27;;;;;;;22.66;67.03;98525.09;6217001;23;20142;-84
2023/07/01 00:57:04;;;;;;;5.40;3.40;;;;;;;22.59;66.98;98517.72;6216793;23;20165;-84
2023/07/01 00:59:33;;;;;;;8.13;3.53;;;;;;;22.59;67.20;98528.41;6216922;23;20183;-84
2023/07/01 01:02:06;;;;;;;6.77;3.90;;;;;;;22.58;67.15;98521.44;6217022;23;20589;-84
2023/07/01 01:05:10;;;;;;;5.00;3.07;;;;;;;22.60;67.40;98524.75;6216324;23;20165;-84
2023/07/01 01:08:14;;;;;;;4.80;2.73;;;;;;;22.60;67.42;98522.09;6190452;23;20199;-84
2023/07/01 01:10:44;;;;;;;5.30;3.13;;;;;;;22.63;66.74;98521.78;6215846;23;20165;-84
2023/07/01 01:13:10;;;;;;;7.57;3.70;;;;;;;22.58;67.11;98526.78;6190632;23;20165;-83
2023/07/01 01:15:37;;;;;;;5.30;3.17;;;;;;;22.63;66.84;98535.13;6216788;23;20620;-84
2023/07/01 01:18:05;;;;;;;5.40;3.43;;;;;;;22.61;66.58;98529.06;6216820;23;20157;-84
2023/07/01 01:20:33;;;;;;;6.07;3.47;;;;;;;22.65;66.55;98521.59;6190479;23;20581;-83
2023/07/01 01:23:06;;;;;;;6.37;3.40;;;;;;;22.60;66.81;98519.41;6190575;23;20154;-84
2023/07/01 01:25:37;;;;;;;4.50;2.93;;;;;;;22.60;66.75;98514.06;6190317;23;20276;-84
2023/07/01 01:28:03;;;;;;;4.77;3.20;;;;;;;22.53;66.93;98514.94;6190503;23;20177;-84
2023/07/01 01:30:31;;;;;;;5.80;3.73;;;;;;;22.51;67.13;98512.41;6216703;23;20162;-83
2023/07/01 01:32:57;;;;;;;5.47;3.63;;;;;;;22.47;67.35;98513.78;6217038;23;20150;-84
2023/07/01 01:35:22;;;;;;;5.17;3.13;;;;;;;22.46;66.94;98517.44;6216541;23;20156;-84
2023/07/01 01:37:54;;;;;;;5.83;3.40;;;;;;;22.40;67.25;98514.63;6216964;23;20177;-84
2023/07/01 01:40:24;;;;;;;7.27;3.63;;;;;;;22.34;67.69;98508.13;6216582;23;20157;-84
2023/07/01 01:42:55;;;;;;;6.43;3.50;;;;;;;22.37;67.51;98506.94;6190206;23;20600;-83
2023/07/01 01:45:21;;;;;;;6.07;3.57;;;;;;;22.44;67.32;98519.44;6216483;23;20177;-83
2023/07/01 01:47:50;;;;;;;5.60;3.47;;;;;;;22.43;67.28;98515.09;6190301;23;20165;-83
2023/07/01 01:50:19;;;;;;;6.03;4.33;;;;;;;22.40;67.44;98520.81;6217191;23;20574;-83
2023/07/01 01:52:48;;;;;;;9.80;3.63;;;;;;;22.39;67.38;98519.13;6216449;23;20146;-84
2023/07/01 01:55:15;;;;;;;5.57;3.63;;;;;;;22.33;67.39;98518.97;6216433;23;20146;-83
2023/07/01 01:57:41;;;;;;;6.73;3.63;;;;;;;22.30;66.95;98522.00;6213137;23;20169;-83
2023/07/01 02:00:08;;;;;;;5.87;4.00;;;;;;;22.31;66.89;98527.16;6220268;23;20153;-83
2023/07/01 02:02:35;;;;;;;6.63;3.73;;;;;;;22.26;66.92;98515.31;6220243;23;20168;-83
2023/07/01 02:05:00;;;;;;;6.57;3.10;;;;;;;22.27;67.05;98512.50;6246632;23;20189;-83
2023/07/01 02:07:26;;;;;;;5.60;3.30;;;;;;;22.24;67.14;98520.81;6220194;23;20551;-83
2023/07/01 02:09:52;;;;;;;5.67;3.30;;;;;;;22.22;66.72;98520.13;6246533;23;20149;-83
2023/07/01 02:12:17;;;;;;;5.40;3.27;;;;;;;22.24;66.62;98525.31;6246987;23;20145;-83
2023/07/01 02:14:43;;;;;;;7.83;3.37;;;;;;;22.21;66.42;98529.16;6220010;23;20160;-83
2023/07/01 02:17:08;;;;;;;6.03;3.63;;;;;;;22.22;66.59;98528.16;6246577;23;20141;-83
2023/07/01 02:19:34;;;;;;;7.00;3.60;;;;;;;22.21;66.39;98531.84;6246890;23;20144;-83
2023/07/01 02:21:59;;;;;;;6.90;3.40;;;;;;;22.19;66.36;98531.19;6246399;23;20587;-83
2023/07/01 02:24:24;;;;;;;5.23;3.40;;;;;;;22.15;66.53;98529.00;6246422;23;20192;-83
2023/07/01 02:26:50;;;;;;;6.83;3.70;;;;;;;22.18;66.45;98528.66;6220035;23;20548;-83
2023/07/01 02:29:16;;;;;;;4.63;3.07;;;;;;;22.24;65.93;98528.84;6220003;23;20152;-83
2023/07/01 02:31:41;;;;;;;6.90;3.60;;;;;;;22.22;65.82;98533.50;6219935;23;20475;-83
2023/07/01 02:34:06;;;;;;;4.73;3.00;;;;;;;22.16;65.62;98531.50;6246411;23;20222;-83
2023/07/01 02:36:32;;;;;;;6.73;4.30;;;;;;;22.11;66.36;98538.34;6246385;23;20509;-83
2023/07/01 02:38:57;;;;;;;6.10;3.37;;;;;;;22.03;66.22;98537.38;6247045;23;20156;-83
2023/07/01 02:41:23;;;;;;;5.27;3.37;;;;;;;22.04;66.43;98546.19;6246702;23;20149;-83
2023/07/01 02:43:48;;;;;;;4.77;3.33;;;;;;;22.03;66.23;98542.69;6246330;23;20181;-83
2023/07/01 02:46:14;;;;;;;6.37;3.80;;;;;;;21.96;66.37;98544.34;6246322;23;20529;-83
2023/07/01 02:48:39;;;;;;;5.83;3.50;;;;;;;21.90;66.47;98552.19;6219582;23;20157;-83
2023/07/01 02:51:06;;;;;;;7.70;3.33;;;;;;;21.87;66.53;98555.19;6246246;23;20172;-83
2023/07/01 02:53:32;;;;;;;5.73;3.37;;;;;;;21.81;66.55;98555.81;6219888;23;20248;-83
2023/07/01 02:55:58;;;;;;;5.93;3.80;;;;;;;21.81;66.73;98550.47;6218218;23;20644;-83
2023/07/01 02:58:24;;;;;;;4.57;2.83;;;;;;;21.80;66.96;98559.50;6189615;23;20153;-83
2023/07/01 03:00:50;;;;;;;5.67;2.87;;;;;;;21.83;66.62;98562.66;6189607;23;20184;-83
2023/07/01 03:03:16;;;;;;;5.97;3.97;;;;;;;21.78;66.44;98553.47;6189589;23;20569;-83
2023/07/01 03:05:42;;;;;;;5.93;3.57;;;;;;;21.71;67.24;98558.66;6216064;23;20185;-83
2023/07/01 03:08:07;;;;;;;5.83;3.33;;;;;;;21.72;67.39;98559.50;6189597;23;20218;-83
2023/07/01 03:10:33;;;;;;;7.23;3.57;;;;;;;21.68;67.63;98560.81;6216107;23;20285;-83
2023/07/01 03:12:59;;;;;;;6.43;4.03;;;;;;;21.65;67.60;98558.47;6189408;23;20634;-83
2023/07/01 03:15:25;;;;;;;6.50;3.60;;;;;;;21.63;67.54;98552.47;6215535;23;20153;-83
2023/07/01 03:17:50;;;;;;;7.73;3.87;;;;;;;21.64;67.62;98552.31;6216345;23;20160;-83
2023/07/01 03:20:22;;;;;;;5.73;3.10;;;;;;;21.65;67.70;98547.78;6216120;23;20220;-83
2023/07/01 03:22:57;;;;;;;5.17;3.17;;;;;;;21.63;67.84;98552.47;6216129;23;20161;-83
2023/07/01 03:25:26;;;;;;;6.73;3.70;;;;;;;21.63;67.79;98552.47;6215985;23;20180;-83
2023/07/01 03:27:52;;;;;;;4.43;2.97;;;;;;;21.64;67.88;98548.81;6215209;23;20474;-83
2023/07/01 03:30:19;;;;;;;6.17;3.93;;;;;;;21.70;67.47;98548.13;6215636;23;20236;-83
2023/07/01 03:32:48;;;;;;;5.83;3.33;;;;;;;21.70;67.40;98550.78;6189448;23;20162;-83
2023/07/01 03:35:15;;;;;;;7.57;4.10;;;;;;;21.72;67.79;98548.81;6215622;23;20463;-83
2023/07/01 03:37:43;;;;;;;4.87;3.37;;;;;;;21.71;67.72;98557.81;6189336;23;20160;-83
2023/07/01 03:40:10;;;;;;;4.50;3.10;;;;;;;21.73;68.11;98556.66;6215609;23;20146;-83
2023/07/01 03:42:37;;;;;;;8.27;4.40;;;;;;;21.77;68.11;98557.16;6215861;23;20149;-83
2023/07/01 03:45:04;;;;;;;5.13;3.50;;;;;;;21.76;68.46;98553.66;6215571;23;20174;-83
2023/07/01 03:47:30;;;;;;;5.80;3.43;;;;;;;21.79;68.32;98544.47;6215654;23;20150;-83
2023/07/01 03:49:55;;;;;;;6.97;4.30;;;;;;;21.78;68.56;98542.81;6190402;23;20160;-83
2023/07/01 03:52:20;;;;;;;6.07;3.77;;;;;;;21.85;68.57;98543.81;6189340;23;20472;-83
2023/07/01 03:54:46;;;;;;;7.30;4.23;;;;;;;21.86;68.44;98542.84;6216202;23;20204;-83
2023/07/01 03:57:12;;;;;;;5.13;3.97;;;;;;;21.93;68.36;98536.66;6215931;23;20247;-83
2023/07/01 03:59:37;;;;;;;5.23;3.93;;;;;;;21.95;68.00;98533.84;6215438;23;20149;-83
2023/07/01 04:02:03;;;;;;;7.03;3.93;;;;;;;21.95;68.59;98531.19;6215436;23;20149;-83
2023/07/01 04:04:29;;;;;;;6.10;3.57;;;;;;;21.99;68.91;98536.00;6215214;23;20181;-83
2023/07/01 04:06:54;;;;;;;7.70;3.87;;;;;;;22.01;68.88;98536.66;6189222;23;20154;-83
2023/07/01 04:09:20;;;;;;;6.13;3.83;;;;;;;22.01;69.48;98536.66;6215471;23;20150;-83
2023/07/01 04:11:46;;;;;;;10.10;4.10;;;;;;;22.12;69.59;98532.84;6189278;23;20158;-83
2023/07/01 04:14:12;;;;;;;7.23;4.07;;;;;;;22.17;69.16;98535.81;6215298;23;20633;-83
2023/07/01 04:16:38;;;;;;;6.97;4.53;;;;;;;22.21;69.34;98531.84;6189352;23;20181;-83
2023/07/01 04:19:03;;;;;;;6.17;4.10;;;;;;;22.23;69.32;98532.50;6215422;23;20600;-83
2023/07/01 04:21:28;;;;;;;5.37;3.70;;;;;;;22.28;68.55;98523.97;6215830;23;20150;-83
2023/07/01 04:23:54;;;;;;;6.00;4.43;;;;;;;22.28;69.01;98529.31;6215542;23;20601;-83
2023/07/01 04:26:19;;;;;;;6.73;4.13;;;;;;;22.41;68.85;98525.13;6215377;23;20188;-83
2023/07/01 04:28:45;;;;;;;5.23;3.50;;;;;;;22.52;68.59;98527.44;6189068;23;20154;-83
2023/07/01 04:31:10;;;;;;;7.53;4.03;;;;;;;22.62;68.25;98528.13;6215365;23;20146;-83
2023/07/01 04:33:36;;;;;;;8.63;3.80;;;;;;;22.73;68.11;98536.75;6215403;23;20150;-83
2023/07/01 04:36:01;;;;;;;6.87;3.83;;;;;;;22.79;68.08;98528.06;6215324;23;20150;-83
2023/07/01 04:38:26;;;;;;;8.93;5.30;;;;;;;22.87;67.87;98536.06;6189859;23;20158;-83
2023/07/01 04:40:53;;;;;;;8.07;4.90;;;;;;;23.01;67.85;98532.66;6217196;23;20569;-84
2023/07/01 04:43:19;;;;;;;7.23;4.63;;;;;;;23.15;67.15;98529.25;6216814;23;20150;-84
2023/07/01 04:45:45;;;;;;;8.07;4.47;;;;;;;23.25;66.85;98535.22;6217022;23;20189;-83
2023/07/01 04:48:11;;;;;;;6.83;4.43;;;;;;;23.37;66.75;98539.22;6191200;23;20153;-84
2023/07/01 04:50:36;;;;;;;8.30;4.17;;;;;;;23.42;66.01;98531.50;6190847;23;20150;-84
2023/07/01 04:53:01;;;;;;;6.60;4.27;;;;;;;23.56;65.97;98537.91;6217073;23;20146;-83
2023/07/01 04:55:27;;;;;;;5.83;4.27;;;;;;;23.61;65.63;98535.56;6217062;23;20146;-84
2023/07/01 04:57:52;;;;;;;11.47;4.90;;;;;;;23.69;65.74;98541.66;6216912;23;20241;-84
2023/07/01 05:00:21;;;;;;;6.97;4.73;;;;;;;23.78;65.37;98537.94;6217322;23;20625;-84
2023/07/01 05:02:47;;;;;;;6.73;4.53;;;;;;;23.83;65.70;98534.72;6216972;23;20229;-84
2023/07/01 05:05:12;;;;;;;9.27;5.03;;;;;;;23.95;65.43;98532.47;6216725;23;20680;-84
2023/07/01 05:07:37;;;;;;;8.97;5.10;;;;;;;24.02;65.02;98533.41;6216804;23;20236;-84
2023/07/01 05:10:03;;;;;;;7.83;4.23;;;;;;;24.08;63.86;98527.34;6190673;23;20236;-84
2023/07/01 05:12:29;;;;;;;6.47;4.77;;;;;;;24.30;63.76;98526.47;6190765;23;20177;-84
2023/07/01 05:14:55;;;;;;;6.27;5.00;;;;;;;24.57;63.29;98535.75;6178394;23;20641;-84
2023/07/01 05:17:21;;;;;;;7.23;4.60;;;;;;;24.94;61.94;98535.72;6217277;23;20158;-85
2023/07/01 05:19:46;;;;;;;7.37;4.93;;;;;;;25.46;60.59;98541.75;6190539;23;20656;-85
2023/07/01 05:22:11;;;;;;;6.63;4.50;;;;;;;25.87;58.44;98543.81;6216526;23;20149;-85
2023/07/01 05:24:37;;;;;;;7.90;4.63;;;;;;;26.36;57.00;98535.81;6216953;23;20177;-84
2023/07/01 05:27:03;;;;;;;6.70;4.37;;;;;;;26.70;55.19;98541.25;6190509;23;20495;-84
2023/07/01 05:29:28;;;;;;;10.27;5.07;;;;;;;27.04;54.69;98546.66;6217046;23;20154;-84
2023/07/01 05:31:55;;;;;;;8.60;5.07;;;;;;;27.42;53.44;98541.66;6216992;23;20229;-84
2023/07/01 05:34:22;;;;;;;7.73;5.13;;;;;;;27.64;53.47;98550.44;6216527;23;20595;-84
2023/07/01 05:36:47;;;;;;;8.30;4.77;;;;;;;27.61;54.04;98545.44;6216820;23;20149;-84
2023/07/01 05:39:13;;;;;;;6.73;4.83;;;;;;;27.71;53.09;98548.56;6217328;23;20161;-84
2023/07/01 05:41:39;;;;;;;9.55;5.18;;;;;;;27.73;53.83;98543.81;6216643;23;20176;-85
2023/07/01 05:44:05;;;;;;;7.47;4.90;;;;;;;27.58;53.72;98538.59;6216541;23;20180;-84
2023/07/01 05:46:30;;;;;;;7.43;4.47;;;;;;;27.71;54.27;98535.09;6216544;23;20150;-84
2023/07/01 05:48:56;;;;;;;7.88;5.25;;;;;;;27.68;54.37;98540.88;6216503;23;20150;-84
2023/07/01 05:51:21;;;;;;;6.72;4.93;;;;;;;27.72;53.18;98537.59;6216222;23;20149;-84
2023/07/01 05:53:47;;;;;;;7.70;5.30;;;;;;;27.77;53.78;98539.69;6216419;23;20514;-84
2023/07/01 05:56:12;;;;;;;6.03;3.65;;;;;;;27.75;50.22;98541.75;6216539;23;20172;-85
2023/07/01 05:58:38;;;;;;;4.05;2.75;;;;;;;27.67;47.27;98544.63;6216843;23;20168;-85
2023/07/01 06:01:04;;;;;;;5.03;3.05;;;;;;;27.53;49.29;98533.00;6216767;23;20150;-85
2023/07/01 06:03:29;;;;;;;5.07;3.35;;;;;;;27.52;48.91;98542.09;6190044;23;20465;-85
2023/07/01 06:05:54;;;;;;;7.07;3.17;;;;;;;27.48;49.68;98534.63;6190130;23;20304;-84
2023/07/01 06:08:20;;;;;;;4.90;2.67;;;;;;;27.54;48.85;98539.22;6190226;23;20162;-85
2023/07/01 06:10:45;;;;;;;5.15;2.95;;;;;;;27.48;49.48;98535.47;6216409;23;20205;-86
2023/07/01 06:13:11;;;;;;;6.03;2.63;;;;;;;27.65;48.52;98536.75;6216241;23;20150;-85
2023/07/01 06:15:36;;;;;;;4.15;2.63;;;;;;;27.76;49.23;98538.84;6216259;23;20212;-85
2023/07/01 06:18:01;;;;;;;5.45;2.72;;;;;;;27.78;47.83;98544.00;6189967;23;20169;-86
2023/07/01 06:20:27;;;;;;;4.60;2.92;;;;;;;27.90;47.40;98548.63;6190133;23;20154;-85
2023/07/01 06:22:52;;;;;;;5.25;3.35;;;;;;;28.02;47.86;98543.47;6216449;23;20215;-86
2023/07/01 06:25:18;;;;;;;7.53;3.25;;;;;;;28.10;48.73;98554.06;6189763;23;20720;-86
2023/07/01 06:27:43;;;;;;;5.88;3.63;;;;;;;28.09;47.70;98544.34;6189946;23;20577;-86
2023/07/01 06:30:09;;;;;;;5.43;3.85;;;;;;;28.27;48.52;98552.63;6190640;23;20188;-86
2023/07/01 06:32:34;;;;;;;6.20;4.13;;;;;;;28.46;47.88;98550.94;6215928;23;20621;-87
2023/07/01 06:35:00;;;;;;;7.20;3.80;;;;;;;28.58;47.97;98550.13;6190160;23;20153;-87
2023/07/01 06:37:25;;;;;;;6.95;4.32;;;;;;;28.70;47.94;98554.88;6216027;23;20229;-87
2023/07/01 06:39:52;;;;;;;5.35;3.85;;;;;;;28.80;48.40;98553.41;6215704;23;20178;-87
2023/07/01 06:42:18;;;;;;;8.95;4.30;;;;;;;28.91;48.13;98554.63;6189750;23;20157;-87
2023/07/01 06:44:43;;;;;;;6.35;4.03;;;;;;;28.85;48.39;98555.50;6216208;23;20505;-87
2023/07/01 06:47:08;;;;;;;6.40;4.22;;;;;;;28.95;47.43;98558.59;6191024;23;20237;-87
2023/07/01 06:49:34;;;;;;;7.15;3.90;;;;;;;29.11;47.39;98564.34;6216335;23;20247;-86
2023/07/01 06:51:59;;;;;;;6.75;3.80;;;;;;;29.41;45.77;98556.59;6189744;23;20768;-86
2023/07/01 06:54:25;;;;;;;6.90;3.78;;;;;;;29.77;44.51;98561.38;6189545;23;20158;-86
2023/07/01 06:56:50;;;;;;;6.75;3.75;;;;;;;30.06;45.09;98560.00;6215948;23;20197;-86
2023/07/01 06:59:16;;;;;;;5.20;3.20;;;;;;;30.22;43.66;98560.28;6189734;23;20165;-86
2023/07/01 07:01:41;;;;;;;5.60;3.47;;;;;;;30.40;43.62;98559.53;6215465;23;20596;-85
2023/07/01 07:04:06;;;;;;;6.43;3.88;;;;;;;30.38;43.23;98567.88;6216029;23;20613;-86
2023/07/01 07:06:32;;;;;;;5.53;3.10;;;;;;;30.51;43.61;98564.22;6216172;23;20191;-86
2023/07/01 07:08:57;;;;;;;5.40;3.90;;;;;;;30.80;41.06;98563.53;6215819;23;20170;-86
2023/07/01 07:11:24;;;;;;;4.70;3.47;;;;;;;31.05;41.78;98551.88;6215582;23;20478;-86
2023/07/01 07:13:50;;;;;;;4.88;3.35;;;;;;;31.23;41.06;98560.00;6216389;23;20154;-86
2023/07/01 07:16:15;;;;;;;5.95;3.50;;;;;;;31.29;41.06;98559.09;6190854;23;20177;-86
2023/07/01 07:18:41;;;;;;;7.40;3.17;;;;;;;31.53;39.80;98558.16;6215661;23;20153;-86
2023/07/01 07:21:06;;;;;;;5.45;3.10;;;;;;;31.54;40.21;98554.41;6215775;23;20635;-86
2023/07/01 07:23:32;;;;;;;5.35;2.75;;;;;;;31.70;42.09;98559.22;6164497;23;20154;-86
2023/07/01 07:25:57;;;;;;;6.45;3.55;;;;;;;31.74;40.16;98554.97;6189873;23;20299;-86
2023/07/01 07:28:23;;;;;;;7.53;2.95;;;;;;;31.81;41.34;98544.06;6216180;23;20174;-86
2023/07/01 07:30:48;;;;;;;7.10;3.83;;;;;;;32.00;41.78;98548.34;6215779;23;20329;-86
2023/07/01 07:33:14;;;;;;;8.57;3.50;;;;;;;32.19;40.08;98558.91;6189361;23;20603;-87
2023/07/01 07:35:39;;;;;;;4.38;2.53;;;;;;;32.66;39.99;98548.97;6189324;23;20157;-86
2023/07/01 07:38:05;;;;;;;6.90;3.35;;;;;;;32.92;39.02;98553.06;6215485;23;20160;-87
2023/07/01 07:40:32;;;;;;;4.75;2.90;;;;;;;33.04;38.90;98545.78;6189432;23;20200;-87
2023/07/01 07:42:58;;;;;;;4.50;3.17;;;;;;;33.24;39.24;98556.25;6215569;23;20219;-86
2023/07/01 07:45:23;;;;;;;4.43;2.95;;;;;;;33.56;39.05;98551.22;6215389;23;20174;-87
2023/07/01 07:47:49;;;;;;;4.22;2.88;;;;;;;33.64;37.36;98542.69;6215540;23;20154;-87
2023/07/01 07:50:15;;;;;;;4.30;2.83;;;;;;;33.39;37.94;98543.81;6215903;23;20150;-87
2023/07/01 07:52:40;;;;;;;4.93;3.35;;;;;;;33.41;37.23;98544.38;6215671;23;20555;-87
2023/07/01 07:55:06;;;;;;;3.97;2.70;;;;;;;33.44;35.81;98534.13;6189737;23;20153;-87
2023/07/01 07:57:31;;;;;;;5.38;3.08;;;;;;;33.35;37.57;98542.66;6215335;23;20196;-87
2023/07/01 07:59:58;;;;;;;4.63;2.95;;;;;;;33.35;37.57;98537.22;6215713;23;20153;-87
2023/07/01 08:02:24;;;;;;;4.30;2.63;;;;;;;33.72;36.29;98537.69;6215501;23;20150;-87
2023/07/01 08:04:49;;;;;;;6.00;2.65;;;;;;;33.76;36.09;98533.41;6216070;23;20252;-87
2023/07/01 08:07:15;;;;;;;4.10;2.78;;;;;;;33.96;38.70;98533.78;6189261;23;20160;-87
2023/07/01 08:09:41;;;;;;;3.85;2.70;;;;;;;34.09;36.51;98526.41;6216435;23;20156;-88
2023/07/01 08:12:07;;;;;;;4.60;3.08;;;;;;;34.23;35.87;98527.72;6189544;23;20564;-88
2023/07/01 08:14:32;;;;;;;3.95;2.75;;;;;;;34.39;37.20;98525.00;6217110;23;20170;-88
2023/07/01 08:16:59;;;;;;;3.92;2.90;;;;;;;34.84;35.92;98524.91;6217369;23;20184;-88
2023/07/01 08:19:25;;;;;;;4.63;2.88;;;;;;;35.10;35.63;98515.19;6191587;23;20498;-87
2023/07/01 08:21:54;;;;;;;4.53;2.92;;;;;;;35.04;36.23;98513.44;6191419;23;20610;-87
2023/07/01 08:24:21;;;;;;;6.45;3.50;;;;;;;35.06;35.76;98522.25;6217283;23;20197;-88
2023/07/01 08:26:46;;;;;;;4.43;2.88;;;;;;;35.14;35.83;98510.91;6217296;23;20734;-87
2023/07/01 08:29:12;;;;;;;4.28;2.88;;;;;;;35.07;35.01;98516.53;6217304;23;20229;-88
2023/07/01 08:31:39;;;;;;;4.70;2.80;;;;;;;34.84;35.19;98507.72;6190973;23;20161;-87
2023/07/01 08:34:05;;;;;;;5.50;3.25;;;;;;;34.99;36.05;98502.47;6217243;23;20146;-87
2023/07/01 08:36:30;;;;;;;4.50;2.88;;;;;;;35.01;34.43;98494.91;6190912;23;20236;-87
2023/07/01 08:38:56;;;;;;;5.03;3.13;;;;;;;34.91;35.41;98492.03;6217188;23;20582;-87
2023/07/01 08:41:24;;;;;;;4.53;3.17;;;;;;;34.58;35.49;98487.50;6190946;23;20150;-87
2023/07/01 08:43:52;;;;;;;5.38;3.33;;;;;;;34.58;35.89;98491.03;6217373;23;20161;-87
2023/07/01 08:46:19;;;;;;;4.68;3.17;;;;;;;34.58;36.00;98482.88;6191177;23;20531;-86
2023/07/01 08:48:45;;;;;;;4.22;2.95;;;;;;;34.59;36.73;98481.00;6216988;23;20160;-87
2023/07/01 08:51:32;;;;;;;6.13;2.85;;;;;;;34.78;37.92;98476.88;6191249;23;20172;-87
2023/07/01 08:54:00;;;;;;;4.40;3.05;;;;;;;35.01;36.38;98475.84;6191148;23;20146;-86
2023/07/01 08:56:26;;;;;;;4.90;3.00;;;;;;;35.18;35.89;98477.44;6216722;23;20224;-87
2023/07/01 08:58:51;;;;;;;3.30;2.58;;;;;;;35.48;34.68;98468.78;6217022;23;20157;-87
2023/07/01 09:01:18;;;;;;;5.57;2.83;;;;;;;35.86;34.73;98462.34;6191137;23;20566;-87
2023/07/01 09:03:47;;;;;;;4.18;2.65;;;;;;;35.89;33.90;98471.91;6217039;23;20149;-87
2023/07/01 09:06:13;;;;;;;3.25;2.25;;;;;;;35.94;33.87;98469.25;6190667;23;20154;-87
2023/07/01 09:08:39;;;;;;;5.72;2.85;;;;;;;35.93;32.34;98478.53;6216726;23;20589;-87
2023/07/01 09:11:15;;;;;;;3.58;2.28;;;;;;;35.97;35.34;98468.72;6217147;23;20481;-87
2023/07/01 09:13:41;;;;;;;5.32;2.60;;;;;;;35.85;32.30;98470.81;6191697;23;20149;-87
2023/07/01 09:16:07;;;;;;;5.38;2.33;;;;;;;36.04;33.12;98474.81;6217178;23;20181;-87
2023/07/01 09:18:33;;;;;;;4.90;2.22;;;;;;;36.09;34.20;98469.38;6217024;23;20207;-86
2023/07/01 09:20:59;;;;;;;3.15;2.00;;;;;;;36.15;31.13;98468.34;6190582;23;20474;-87
2023/07/01 09:23:31;;;;;;;4.22;2.00;;;;;;;35.97;32.70;98463.25;6216927;23;20157;-87
2023/07/01 09:26:10;;;;;;;2.88;1.77;;;;;;;35.98;32.02;98451.28;6216157;23;20256;-86
2023/07/01 09:28:38;;;;;;;3.05;2.00;;;;;;;36.18;33.06;98455.00;6190498;23;20154;-87
2023/07/01 09:31:08;;;;;;;2.75;1.90;;;;;;;36.41;32.84;98453.81;6216690;23;20150;-86
2023/07/01 09:33:36;;;;;;;3.35;1.67;;;;;;;36.42;33.74;98454.63;6216998;23;20169;-88
2023/07/01 09:36:04;;;;;;;3.70;1.95;;;;;;;36.53;31.59;98454.44;6216789;23;20220;-87
2023/07/01 09:38:34;;;;;;;3.60;2.20;;;;;;;36.57;30.96;98446.56;6190839;23;20150;-87
2023/07/01 09:41:13;;;;;;;2.90;1.77;;;;;;;36.66;32.36;98444.97;6190795;23;20171;-86
2023/07/01 09:43:40;;;;;;;2.75;1.90;;;;;;;36.65;29.73;98449.63;6216495;23;20146;-88
2023/07/01 09:46:06;;;;;;;2.88;1.48;;;;;;;36.60;28.99;98446.84;6190838;23;20161;-87
2023/07/01 09:48:33;;;;;;;3.38;2.03;;;;;;;36.58;28.56;98437.28;6190222;23;20154;-87
2023/07/01 09:51:03;;;;;;;3.30;1.60;;;;;;;36.69;29.11;98439.78;6216453;23;20157;-87
2023/07/01 09:53:34;;;;;;;4.47;2.00;;;;;;;36.86;30.87;98440.44;6190538;23;20153;-87
2023/07/01 09:56:03;;;;;;;4.18;2.03;;;;;;;36.82;29.21;98428.38;6189953;23;20146;-86
2023/07/01 09:58:33;;;;;;;2.75;1.73;;;;;;;36.49;30.52;98428.75;6216522;23;20531;-87
2023/07/01 10:01:02;;;;;;;4.47;1.90;;;;;;;36.56;30.08;98429.34;6190484;23;20216;-87
2023/07/01 10:03:27;;;;;;;4.68;1.73;;;;;;;36.50;27.75;98427.69;6190623;23;20169;-87
2023/07/01 10:05:54;;;;;;;2.72;1.60;;;;;;;36.34;28.85;98425.91;6213118;23;20613;-87
2023/07/01 10:08:20;;;;;;;3.17;1.75;;;;;;;35.98;29.75;98418.53;6214875;23;20157;-87
2023/07/01 10:10:58;;;;;;;2.90;1.75;;;;;;;35.71;28.90;98411.22;6216145;23;20150;-86
2023/07/01 10:13:24;;;;;;;3.17;2.00;;;;;;;35.63;28.80;98414.44;6190309;23;20200;-87
2023/07/01 10:15:50;;;;;;;3.15;1.95;;;;;;;36.02;30.72;98406.03;6190157;23;20270;-86
2023/07/01 10:18:22;;;;;;;5.80;1.92;;;;;;;36.20;29.64;98414.63;6216288;23;20163;-87
2023/07/01 10:20:50;;;;;;;4.32;1.98;;;;;;;36.39;28.12;98406.84;6189807;23;20168;-87
2023/07/01 10:23:15;;;;;;;2.35;1.52;;;;;;;36.48;28.13;98402.53;6190450;23;20176;-87
2023/07/01 10:25:41;;;;;;;2.10;1.38;;;;;;;36.63;28.61;98402.63;6190130;23;20614;-86
2023/07/01 10:28:08;;;;;;;2.35;1.38;;;;;;;36.81;25.55;98402.16;6216131;23;20153;-87
2023/07/01 10:30:46;;;;;;;1.80;0.95;;;;;;;36.88;24.17;98393.72;6190308;23;20596;-87
2023/07/01 10:33:35;;;;;;;2.35;1.38;;;;;;;37.25;25.10;98393.56;6215940;23;20215;-87
2023/07/01 10:36:13;;;;;;;2.50;1.60;;;;;;;37.52;28.62;98394.22;6217149;23;20130;-87
2023/07/01 10:38:39;;;;;;;3.10;1.60;;;;;;;37.13;26.09;98379.34;6216189;23;20211;-86
2023/07/01 10:41:05;;;;;;;3.03;1.27;;;;;;;37.37;27.67;98377.75;6216475;23;20161;-86
2023/07/01 10:43:38;;;;;;;7.07;1.73;;;;;;;37.60;26.49;98382.72;6189665;23;20504;-87
2023/07/01 10:46:11;;;;;;;2.60;1.70;;;;;;;37.50;27.52;98380.00;6190049;23;20162;-87
2023/07/01 10:49:04;;;;;;;2.42;1.50;;;;;;;37.44;28.39;98370.13;6215934;23;20532;-87
2023/07/01 10:51:31;;;;;;;4.03;1.80;;;;;;;37.56;28.62;98362.47;6189620;23;20158;-87
2023/07/01 10:53:59;;;;;;;3.72;1.95;;;;;;;37.36;27.25;98366.00;6215899;23;20160;-87
2023/07/01 10:56:28;;;;;;;2.70;1.45;;;;;;;36.98;28.23;98362.91;6215609;23;20194;-87
2023/07/01 10:59:20;;;;;;;2.65;1.45;;;;;;;37.32;28.26;98356.69;6189563;23;20168;-87
2023/07/01 11:01:48;;;;;;;2.95;2.05;;;;;;;37.59;28.09;98355.63;6216166;23;20208;-87
2023/07/01 11:04:14;;;;;;;2.28;1.35;;;;;;;37.44;25.10;98359.19;6215594;23;20257;-88
2023/07/01 11:06:48;;;;;;;2.78;1.67;;;;;;;37.42;26.50;98344.97;6215833;23;20150;-87
2023/07/01 11:09:15;;;;;;;2.58;1.50;;;;;;;37.34;26.25;98342.75;6189473;23;20158;-87
2023/07/01 11:11:41;;;;;;;3.40;1.77;;;;;;;37.44;26.56;98337.31;6215775;23;20142;-87
2023/07/01 11:14:08;;;;;;;2.63;1.52;;;;;;;37.45;26.48;98339.75;6215798;23;20582;-86
2023/07/01 11:16:36;;;;;;;2.45;1.42;;;;;;;37.71;26.40;98328.84;6216491;23;20149;-87
2023/07/01 11:19:07;;;;;;;2.15;1.42;;;;;;;37.81;26.22;98318.72;6190349;23;20183;-87
2023/07/01 11:21:33;;;;;;;3.20;1.50;;;;;;;38.00;24.93;98306.09;6189476;23;20231;-87
2023/07/01 11:24:07;;;;;;;2.25;1.38;;;;;;;38.30;24.88;98307.09;6215884;23;20257;-87
2023/07/01 11:26:34;;;;;;;3.13;1.40;;;;;;;38.52;25.52;98302.13;6189759;23;20161;-87
2023/07/01 11:29:01;;;;;;;4.55;1.42;;;;;;;38.43;26.30;98290.09;6190255;23;20158;-87
2023/07/01 11:31:34;;;;;;;2.67;1.55;;;;;;;38.30;26.25;98291.50;6215612;23;20161;-87
2023/07/01 11:34:00;;;;;;;7.28;2.15;;;;;;;38.30;25.88;98285.19;6190510;23;20216;-85